sensor_id;sensor_type;location;lat;lon;timestamp;pressure;altitude;pressure_sealevel;temperature;humidity
6514;BME280;3290;47.716;9.070;2023-09-19T00:02:27;96746.34;;;20.36;93.11
6514;BME280;3290;47.716;9.070;2023-09-19T00:04:55;96740.75;;;20.65;91.64
6514;BME280;3290;47.716;9.070;2023-09-19T00:07:21;96743.94;;;20.62;92.62
6514;BME280;3290;47.716;9.070;2023-09-19T00:10:10;96740.63;;;20.75;93.05
6514;BME280;3290;47.716;9.070;2023-09-19T00:12:58;96748.25;;;20.63;92.38
6514;BME280;3290;47.716;9.070;2023-09-19T00:15:28;96743.63;;;20.74;92.50
6514;BME280;3290;47.716;9.070;2023-09-19T00:18:02;96743.94;;;20.62;91.67
6514;BME280;3290;47.716;9.070;2023-09-19T00:20:30;96744.06;;;20.81;92.10
6514;BME280;3290;47.716;9.070;2023-09-19T00:23:05;96745.22;;;20.70;92.24
6514;BME280;3290;47.716;9.070;2023-09-19T00:25:30;96754.41;;;20.54;92.58
6514;BME280;3290;47.716;9.070;2023-09-19T00:27:57;96763.47;;;20.53;93.23
6514;BME280;3290;47.716;9.070;2023-09-19T00:30:26;96764.22;;;20.63;92.71
6514;BME280;3290;47.716;9.070;2023-09-19T00:32:59;96765.34;;;20.52;92.65
6514;BME280;3290;47.716;9.070;2023-09-19T00:35:33;96769.56;;;20.58;92.32
6514;BME280;3290;47.716;9.070;2023-09-19T00:38:04;96769.97;;;20.42;93.72
6514;BME280;3290;47.716;9.070;2023-09-19T00:40:32;96765.88;;;20.54;93.10
6514;BME280;3290;47.716;9.070;2023-09-19T00:42:58;96770.00;;;20.37;94.00
6514;BME280;3290;47.716;9.070;2023-09-19T00:45:27;96766.34;;;20.61;91.47
6514;BME280;3290;47.716;9.070;2023-09-19T00:47:54;96766.66;;;20.55;92.50
6514;BME280;3290;47.716;9.070;2023-09-19T00:50:22;96770.00;;;20.37;93.28
6514;BME280;3290;47.716;9.070;2023-09-19T00:52:54;96763.31;;;20.40;93.63
6514;BME280;3290;47.716;9.070;2023-09-19T00:55:21;96760.69;;;20.35;93.34
6514;BME280;3290;47.716;9.070;2023-09-19T00:57:49;96772.44;;;20.34;92.42
6514;BME280;3290;47.716;9.070;2023-09-19T01:00:18;96767.19;;;20.24;92.38
6514;BME280;3290;47.716;9.070;2023-09-19T01:02:46;96767.38;;;20.32;92.08
6514;BME280;3290;47.716;9.070;2023-09-19T01:06:09;96769.81;;;20.29;94.48
6514;BME280;3290;47.716;9.070;2023-09-19T01:08:35;96775.69;;;20.26;93.88
6514;BME280;3290;47.716;9.070;2023-09-19T01:11:35;96776.81;;;20.20;93.60
6514;BME280;3290;47.716;9.070;2023-09-19T01:14:14;96781.28;;;20.24;93.63
6514;BME280;3290;47.716;9.070;2023-09-19T01:16:59;96780.97;;;20.31;92.03
6514;BME280;3290;47.716;9.070;2023-09-19T01:22:48;96791.00;;;20.06;91.63
6514;BME280;3290;47.716;9.070;2023-09-19T01:28:39;96794.03;;;19.89;92.71
6514;BME280;3290;47.716;9.070;2023-09-19T01:31:11;96788.13;;;19.97;92.64
6514;BME280;3290;47.716;9.070;2023-09-19T01:34:00;96791.06;;;19.96;91.98
6514;BME280;3290;47.716;9.070;2023-09-19T01:36:27;96797.75;;;19.93;92.55
6514;BME280;3290;47.716;9.070;2023-09-19T01:38:57;96798.25;;;19.95;94.10
6514;BME280;3290;47.716;9.070;2023-09-19T01:42:02;96795.31;;;19.97;94.42
6514;BME280;3290;47.716;9.070;2023-09-19T01:45:11;96788.19;;;19.87;94.32
6514;BME280;3290;47.716;9.070;2023-09-19T01:47:54;96788.69;;;19.89;93.04
6514;BME280;3290;47.716;9.070;2023-09-19T01:53:06;96801.69;;;19.96;93.11
6514;BME280;3290;47.716;9.070;2023-09-19T01:55:41;96806.28;;;19.80;94.94
6514;BME280;3290;47.716;9.070;2023-09-19T01:58:37;96805.16;;;19.96;93.81
6514;BME280;3290;47.716;9.070;2023-09-19T02:01:05;96801.09;;;20.04;95.24
6514;BME280;3290;47.716;9.070;2023-09-19T02:03:36;96807.06;;;19.86;95.04
6514;BME280;3290;47.716;9.070;2023-09-19T02:06:04;96814.28;;;19.75;95.73
6514;BME280;3290;47.716;9.070;2023-09-19T02:08:33;96820.66;;;19.79;95.86
6514;BME280;3290;47.716;9.070;2023-09-19T02:11:01;96812.66;;;19.84;96.00
6514;BME280;3290;47.716;9.070;2023-09-19T02:13:30;96818.47;;;19.91;95.18
6514;BME280;3290;47.716;9.070;2023-09-19T02:16:01;96818.03;;;19.74;95.39
6514;BME280;3290;47.716;9.070;2023-09-19T02:18:40;96828.31;;;19.96;95.83
6514;BME280;3290;47.716;9.070;2023-09-19T02:21:05;96826.75;;;19.80;96.51
6514;BME280;3290;47.716;9.070;2023-09-19T02:23:40;96820.41;;;19.76;96.44
6514;BME280;3290;47.716;9.070;2023-09-19T02:26:08;96827.38;;;19.67;96.95
6514;BME280;3290;47.716;9.070;2023-09-19T02:28:47;96832.09;;;19.80;97.76
6514;BME280;3290;47.716;9.070;2023-09-19T02:31:13;96831.03;;;19.76;95.62
6514;BME280;3290;47.716;9.070;2023-09-19T02:33:41;96833.72;;;19.76;96.07
6514;BME280;3290;47.716;9.070;2023-09-19T02:36:07;96836.63;;;19.79;97.52
6514;BME280;3290;47.716;9.070;2023-09-19T02:38:33;96839.84;;;19.66;97.74
6514;BME280;3290;47.716;9.070;2023-09-19T02:41:08;96839.06;;;19.61;97.59
6514;BME280;3290;47.716;9.070;2023-09-19T02:43:33;96843.59;;;19.61;98.18
6514;BME280;3290;47.716;9.070;2023-09-19T02:45:59;96832.72;;;19.57;99.31
6514;BME280;3290;47.716;9.070;2023-09-19T02:48:27;96838.53;;;19.64;97.24
6514;BME280;3290;47.716;9.070;2023-09-19T02:51:18;96840.88;;;19.75;97.63
6514;BME280;3290;47.716;9.070;2023-09-19T02:53:55;96833.47;;;19.67;97.85
6514;BME280;3290;47.716;9.070;2023-09-19T02:56:27;96835.84;;;19.74;97.81
6514;BME280;3290;47.716;9.070;2023-09-19T02:59:03;96828.69;;;19.65;97.60
6514;BME280;3290;47.716;9.070;2023-09-19T03:01:49;96833.75;;;19.66;97.91
6514;BME280;3290;47.716;9.070;2023-09-19T03:04:15;96841.44;;;19.72;97.33
6514;BME280;3290;47.716;9.070;2023-09-19T03:06:45;96835.53;;;19.85;98.00
6514;BME280;3290;47.716;9.070;2023-09-19T03:09:11;96833.13;;;19.79;97.12
6514;BME280;3290;47.716;9.070;2023-09-19T03:11:42;96830.84;;;19.58;98.18
6514;BME280;3290;47.716;9.070;2023-09-19T03:14:10;96837.44;;;19.70;97.66
6514;BME280;3290;47.716;9.070;2023-09-19T03:16:37;96837.78;;;19.59;97.87
6514;BME280;3290;47.716;9.070;2023-09-19T03:19:05;96840.16;;;19.60;98.45
6514;BME280;3290;47.716;9.070;2023-09-19T03:21:31;96836.91;;;19.73;96.70
6514;BME280;3290;47.716;9.070;2023-09-19T03:23:56;96838.00;;;19.67;95.64
6514;BME280;3290;47.716;9.070;2023-09-19T03:26:30;96826.53;;;19.71;96.09
6514;BME280;3290;47.716;9.070;2023-09-19T03:28:58;96831.88;;;19.66;95.22
6514;BME280;3290;47.716;9.070;2023-09-19T03:31:24;96830.03;;;19.62;96.87
6514;BME280;3290;47.716;9.070;2023-09-19T03:33:49;96831.28;;;19.79;95.22
6514;BME280;3290;47.716;9.070;2023-09-19T03:36:15;96834.31;;;19.58;94.75
6514;BME280;3290;47.716;9.070;2023-09-19T03:38:48;96827.25;;;19.97;93.92
6514;BME280;3290;47.716;9.070;2023-09-19T03:41:13;96840.31;;;19.78;94.69
6514;BME280;3290;47.716;9.070;2023-09-19T03:43:44;96843.25;;;19.82;94.69
6514;BME280;3290;47.716;9.070;2023-09-19T03:46:12;96848.06;;;19.85;94.88
6514;BME280;3290;47.716;9.070;2023-09-19T03:48:40;96841.66;;;19.86;95.49
6514;BME280;3290;47.716;9.070;2023-09-19T03:51:05;96828.72;;;19.60;95.21
6514;BME280;3290;47.716;9.070;2023-09-19T03:53:31;96830.22;;;19.85;95.53
6514;BME280;3290;47.716;9.070;2023-09-19T03:55:56;96839.06;;;19.61;96.90
6514;BME280;3290;47.716;9.070;2023-09-19T03:58:25;96836.38;;;19.71;95.72
6514;BME280;3290;47.716;9.070;2023-09-19T04:00:50;96830.66;;;20.02;94.97
6514;BME280;3290;47.716;9.070;2023-09-19T04:03:19;96830.97;;;19.96;94.60
6514;BME280;3290;47.716;9.070;2023-09-19T04:05:48;96835.53;;;19.85;95.22
6514;BME280;3290;47.716;9.070;2023-09-19T04:08:14;96837.69;;;19.83;93.99
6514;BME280;3290;47.716;9.070;2023-09-19T04:10:45;96829.16;;;19.81;93.86
6514;BME280;3290;47.716;9.070;2023-09-19T04:13:13;96830.19;;;19.95;92.50
6514;BME280;3290;47.716;9.070;2023-09-19T04:15:38;96835.03;;;19.68;93.58
6514;BME280;3290;47.716;9.070;2023-09-19T04:18:05;96829.03;;;20.06;92.43
6514;BME280;3290;47.716;9.070;2023-09-19T04:20:31;96829.13;;;19.91;93.15
6514;BME280;3290;47.716;9.070;2023-09-19T04:22:57;96835.53;;;19.90;92.43
6514;BME280;3290;47.716;9.070;2023-09-19T04:25:31;96838.19;;;19.80;92.99
6514;BME280;3290;47.716;9.070;2023-09-19T04:27:57;96842.41;;;19.91;92.72
6514;BME280;3290;47.716;9.070;2023-09-19T04:30:25;96851.56;;;19.66;93.92
6514;BME280;3290;47.716;9.070;2023-09-19T04:32:52;96858.25;;;19.58;93.11
6514;BME280;3290;47.716;9.070;2023-09-19T04:35:19;96860.31;;;19.71;93.22
6514;BME280;3290;47.716;9.070;2023-09-19T04:37:47;96864.50;;;19.92;92.19
6514;BME280;3290;47.716;9.070;2023-09-19T04:40:13;96856.88;;;19.66;92.71
6514;BME280;3290;47.716;9.070;2023-09-19T04:42:43;96861.63;;;19.73;92.15
6514;BME280;3290;47.716;9.070;2023-09-19T04:45:09;96860.03;;;19.77;92.44
6514;BME280;3290;47.716;9.070;2023-09-19T04:47:38;96851.00;;;19.68;92.01
6514;BME280;3290;47.716;9.070;2023-09-19T04:50:14;96865.88;;;19.79;92.85
6514;BME280;3290;47.716;9.070;2023-09-19T04:52:41;96864.53;;;19.77;92.78
6514;BME280;3290;47.716;9.070;2023-09-19T04:55:27;96869.59;;;19.78;93.61
6514;BME280;3290;47.716;9.070;2023-09-19T04:57:56;96874.75;;;19.50;93.61
6514;BME280;3290;47.716;9.070;2023-09-19T05:00:27;96869.94;;;19.57;92.66
6514;BME280;3290;47.716;9.070;2023-09-19T05:02:56;96877.56;;;19.78;92.32
6514;BME280;3290;47.716;9.070;2023-09-19T05:05:22;96873.38;;;19.63;92.52
6514;BME280;3290;47.716;9.070;2023-09-19T05:07:49;96893.59;;;19.59;93.62
6514;BME280;3290;47.716;9.070;2023-09-19T05:10:17;96887.66;;;19.81;92.25
6514;BME280;3290;47.716;9.070;2023-09-19T05:12:52;96887.69;;;19.86;92.14
6514;BME280;3290;47.716;9.070;2023-09-19T05:15:17;96885.88;;;19.67;92.56
6514;BME280;3290;47.716;9.070;2023-09-19T05:17:50;96892.50;;;19.69;93.37
6514;BME280;3290;47.716;9.070;2023-09-19T05:20:29;96891.69;;;19.69;92.39
6514;BME280;3290;47.716;9.070;2023-09-19T05:23:14;96900.97;;;19.86;92.06
6514;BME280;3290;47.716;9.070;2023-09-19T05:25:40;96904.22;;;19.59;92.79
6514;BME280;3290;47.716;9.070;2023-09-19T05:28:17;96907.16;;;19.57;91.65
6514;BME280;3290;47.716;9.070;2023-09-19T05:30:51;96910.53;;;19.87;91.50
6514;BME280;3290;47.716;9.070;2023-09-19T05:33:18;96902.50;;;20.02;91.16
6514;BME280;3290;47.716;9.070;2023-09-19T05:35:57;96910.06;;;19.66;92.72
6514;BME280;3290;47.716;9.070;2023-09-19T05:38:23;96914.81;;;19.68;91.53
6514;BME280;3290;47.716;9.070;2023-09-19T05:40:51;96916.72;;;19.58;92.72
6514;BME280;3290;47.716;9.070;2023-09-19T05:43:40;96921.44;;;19.86;90.67
6514;BME280;3290;47.716;9.070;2023-09-19T05:46:08;96924.91;;;19.76;92.39
6514;BME280;3290;47.716;9.070;2023-09-19T05:48:46;96930.22;;;19.71;91.76
6514;BME280;3290;47.716;9.070;2023-09-19T05:51:29;96931.56;;;19.74;91.89
6514;BME280;3290;47.716;9.070;2023-09-19T05:53:58;96935.81;;;19.65;93.60
6514;BME280;3290;47.716;9.070;2023-09-19T05:56:34;96937.94;;;19.73;92.81
6514;BME280;3290;47.716;9.070;2023-09-19T05:58:59;96941.44;;;19.64;92.87
6514;BME280;3290;47.716;9.070;2023-09-19T06:01:36;96939.56;;;19.69;93.47
6514;BME280;3290;47.716;9.070;2023-09-19T06:04:13;96940.66;;;19.48;92.96
6514;BME280;3290;47.716;9.070;2023-09-19T06:06:50;96941.91;;;19.75;92.20
6514;BME280;3290;47.716;9.070;2023-09-19T06:09:22;96939.56;;;19.69;93.27
6514;BME280;3290;47.716;9.070;2023-09-19T06:11:53;96944.06;;;19.68;94.47
6514;BME280;3290;47.716;9.070;2023-09-19T06:14:20;96947.34;;;19.36;93.97
6514;BME280;3290;47.716;9.070;2023-09-19T06:16:46;96952.34;;;19.57;92.71
6514;BME280;3290;47.716;9.070;2023-09-19T06:19:12;96949.69;;;19.52;92.59
6514;BME280;3290;47.716;9.070;2023-09-19T06:21:37;96946.97;;;19.72;92.23
6514;BME280;3290;47.716;9.070;2023-09-19T06:24:04;96955.19;;;19.80;92.74
6514;BME280;3290;47.716;9.070;2023-09-19T06:26:29;96955.78;;;19.63;92.22
6514;BME280;3290;47.716;9.070;2023-09-19T06:28:56;96952.84;;;19.69;92.85
6514;BME280;3290;47.716;9.070;2023-09-19T06:31:21;96959.53;;;19.57;93.28
6514;BME280;3290;47.716;9.070;2023-09-19T06:33:51;96960.03;;;19.83;94.46
6514;BME280;3290;47.716;9.070;2023-09-19T06:36:16;96958.69;;;19.76;95.53
6514;BME280;3290;47.716;9.070;2023-09-19T06:38:42;96953.13;;;19.63;94.11
6514;BME280;3290;47.716;9.070;2023-09-19T06:41:08;96950.94;;;19.84;94.19
6514;BME280;3290;47.716;9.070;2023-09-19T06:43:34;96955.22;;;19.85;93.44
6514;BME280;3290;47.716;9.070;2023-09-19T06:46:03;96966.13;;;19.84;92.89
6514;BME280;3290;47.716;9.070;2023-09-19T06:48:29;96961.81;;;19.98;92.62
6514;BME280;3290;47.716;9.070;2023-09-19T06:50:55;96971.34;;;20.13;91.98
6514;BME280;3290;47.716;9.070;2023-09-19T06:53:21;96981.22;;;20.03;92.63
6514;BME280;3290;47.716;9.070;2023-09-19T06:55:49;96973.22;;;20.08;93.05
6514;BME280;3290;47.716;9.070;2023-09-19T06:58:15;96979.22;;;20.33;91.90
6514;BME280;3290;47.716;9.070;2023-09-19T07:00:42;96981.22;;;20.08;92.06
6514;BME280;3290;47.716;9.070;2023-09-19T07:03:08;96989.97;;;20.13;91.42
6514;BME280;3290;47.716;9.070;2023-09-19T07:05:37;96989.91;;;20.28;91.25
6514;BME280;3290;47.716;9.070;2023-09-19T07:08:05;96985.50;;;20.57;89.29
6514;BME280;3290;47.716;9.070;2023-09-19T07:10:36;96995.53;;;20.22;90.52
6514;BME280;3290;47.716;9.070;2023-09-19T07:13:03;96994.75;;;20.21;92.09
6514;BME280;3290;47.716;9.070;2023-09-19T07:15:31;96990.19;;;20.27;91.67
6514;BME280;3290;47.716;9.070;2023-09-19T07:17:58;96990.03;;;20.56;89.33
6514;BME280;3290;47.716;9.070;2023-09-19T07:20:26;96992.78;;;20.37;87.53
6514;BME280;3290;47.716;9.070;2023-09-19T07:22:52;96986.78;;;20.69;88.12
6514;BME280;3290;47.716;9.070;2023-09-19T07:25:20;96997.66;;;21.16;87.71
6514;BME280;3290;47.716;9.070;2023-09-19T07:27:45;96991.47;;;21.58;86.06
6514;BME280;3290;47.716;9.070;2023-09-19T07:30:11;97000.13;;;21.40;85.87
6514;BME280;3290;47.716;9.070;2023-09-19T07:32:37;97000.00;;;21.22;84.01
6514;BME280;3290;47.716;9.070;2023-09-19T07:35:03;97000.31;;;21.49;84.81
6514;BME280;3290;47.716;9.070;2023-09-19T07:37:30;97004.69;;;21.02;84.55
6514;BME280;3290;47.716;9.070;2023-09-19T07:40:00;97004.28;;;20.85;84.24
6514;BME280;3290;47.716;9.070;2023-09-19T07:42:26;97000.09;;;21.45;83.14
6514;BME280;3290;47.716;9.070;2023-09-19T07:44:52;96998.28;;;21.92;80.66
6514;BME280;3290;47.716;9.070;2023-09-19T07:47:19;97004.00;;;21.86;80.04
6514;BME280;3290;47.716;9.070;2023-09-19T07:49:48;97005.78;;;22.13;76.92
6514;BME280;3290;47.716;9.070;2023-09-19T07:52:14;96999.94;;;22.16;75.98
6514;BME280;3290;47.716;9.070;2023-09-19T07:54:40;96997.75;;;22.18;77.67
6514;BME280;3290;47.716;9.070;2023-09-19T07:57:06;97004.56;;;22.29;75.95
6514;BME280;3290;47.716;9.070;2023-09-19T07:59:32;96994.88;;;22.56;76.10
6514;BME280;3290;47.716;9.070;2023-09-19T08:01:57;96987.19;;;22.92;73.84
6514;BME280;3290;47.716;9.070;2023-09-19T08:04:23;96991.06;;;22.81;75.14
6514;BME280;3290;47.716;9.070;2023-09-19T08:06:51;96994.06;;;23.29;73.89
6514;BME280;3290;47.716;9.070;2023-09-19T08:09:17;97009.41;;;23.42;72.03
6514;BME280;3290;47.716;9.070;2023-09-19T08:11:48;97002.75;;;22.85;73.92
6514;BME280;3290;47.716;9.070;2023-09-19T08:14:15;97014.09;;;22.58;72.87
6514;BME280;3290;47.716;9.070;2023-09-19T08:16:41;97000.38;;;23.38;71.40
6514;BME280;3290;47.716;9.070;2023-09-19T08:19:09;97006.34;;;22.98;72.12
6514;BME280;3290;47.716;9.070;2023-09-19T08:21:35;97012.97;;;23.01;72.55
6514;BME280;3290;47.716;9.070;2023-09-19T08:24:01;97012.25;;;22.95;72.56
6514;BME280;3290;47.716;9.070;2023-09-19T08:26:29;97021.13;;;22.31;73.76
6514;BME280;3290;47.716;9.070;2023-09-19T08:28:55;97032.56;;;22.96;72.37
6514;BME280;3290;47.716;9.070;2023-09-19T08:31:21;97026.88;;;22.80;73.49
6514;BME280;3290;47.716;9.070;2023-09-19T08:33:47;97030.88;;;22.82;73.34
6514;BME280;3290;47.716;9.070;2023-09-19T08:36:14;97025.22;;;22.65;74.20
6514;BME280;3290;47.716;9.070;2023-09-19T08:38:40;97031.59;;;22.88;72.59
6514;BME280;3290;47.716;9.070;2023-09-19T08:41:07;97039.22;;;23.17;69.97
6514;BME280;3290;47.716;9.070;2023-09-19T08:43:35;97037.63;;;22.75;71.44
6514;BME280;3290;47.716;9.070;2023-09-19T08:46:13;97035.56;;;23.45;67.52
6514;BME280;3290;47.716;9.070;2023-09-19T08:48:46;97041.72;;;23.59;69.51
6514;BME280;3290;47.716;9.070;2023-09-19T08:51:18;97041.66;;;23.82;66.36
6514;BME280;3290;47.716;9.070;2023-09-19T08:54:03;97045.91;;;24.28;65.91
6514;BME280;3290;47.716;9.070;2023-09-19T08:56:32;97040.72;;;23.23;67.07
6514;BME280;3290;47.716;9.070;2023-09-19T08:59:04;97047.88;;;23.77;67.71
6514;BME280;3290;47.716;9.070;2023-09-19T09:01:35;97042.09;;;23.71;67.71
6514;BME280;3290;47.716;9.070;2023-09-19T09:04:02;97043.59;;;23.27;70.03
6514;BME280;3290;47.716;9.070;2023-09-19T09:06:29;97045.75;;;22.88;69.83
6514;BME280;3290;47.716;9.070;2023-09-19T09:08:55;97045.97;;;22.73;69.05
6514;BME280;3290;47.716;9.070;2023-09-19T09:11:21;97038.47;;;23.30;66.02
6514;BME280;3290;47.716;9.070;2023-09-19T09:13:47;97042.50;;;24.22;63.61
6514;BME280;3290;47.716;9.070;2023-09-19T09:16:14;97048.28;;;24.56;64.82
6514;BME280;3290;47.716;9.070;2023-09-19T09:18:42;97041.22;;;24.60;64.34
6514;BME280;3290;47.716;9.070;2023-09-19T09:21:09;97037.91;;;25.03;64.20
6514;BME280;3290;47.716;9.070;2023-09-19T09:23:35;97038.94;;;24.13;63.94
6514;BME280;3290;47.716;9.070;2023-09-19T09:26:04;97037.94;;;23.46;66.10
6514;BME280;3290;47.716;9.070;2023-09-19T09:28:32;97049.09;;;23.17;67.24
6514;BME280;3290;47.716;9.070;2023-09-19T09:30:58;97044.69;;;22.48;69.02
6514;BME280;3290;47.716;9.070;2023-09-19T09:33:35;97055.22;;;22.11;72.20
6514;BME280;3290;47.716;9.070;2023-09-19T09:36:02;97045.69;;;22.05;72.84
6514;BME280;3290;47.716;9.070;2023-09-19T09:38:30;97055.03;;;22.03;74.28
6514;BME280;3290;47.716;9.070;2023-09-19T09:41:10;97047.03;;;22.03;74.96
6514;BME280;3290;47.716;9.070;2023-09-19T09:43:40;97042.94;;;22.10;75.69
6514;BME280;3290;47.716;9.070;2023-09-19T09:46:20;97048.41;;;22.00;75.62
6514;BME280;3290;47.716;9.070;2023-09-19T09:51:32;97050.41;;;21.85;75.77
6514;BME280;3290;47.716;9.070;2023-09-19T09:54:15;97054.72;;;21.81;75.34
6514;BME280;3290;47.716;9.070;2023-09-19T09:57:00;97048.00;;;22.11;75.68
6514;BME280;3290;47.716;9.070;2023-09-19T09:59:54;97044.75;;;22.19;74.96
6514;BME280;3290;47.716;9.070;2023-09-19T10:02:28;97044.56;;;21.83;74.20
6514;BME280;3290;47.716;9.070;2023-09-19T10:04:57;97052.66;;;21.73;75.17
6514;BME280;3290;47.716;9.070;2023-09-19T10:07:40;97048.84;;;21.84;74.37
6514;BME280;3290;47.716;9.070;2023-09-19T10:10:29;97050.03;;;21.68;74.78
6514;BME280;3290;47.716;9.070;2023-09-19T10:12:58;97047.22;;;21.83;74.63
6514;BME280;3290;47.716;9.070;2023-09-19T10:15:31;97055.25;;;22.06;73.63
6514;BME280;3290;47.716;9.070;2023-09-19T10:18:04;97053.31;;;21.88;74.58
6514;BME280;3290;47.716;9.070;2023-09-19T10:20:30;97052.38;;;22.03;75.08
6514;BME280;3290;47.716;9.070;2023-09-19T10:23:03;97057.00;;;21.92;75.55
6514;BME280;3290;47.716;9.070;2023-09-19T10:25:36;97051.91;;;21.96;77.02
6514;BME280;3290;47.716;9.070;2023-09-19T10:28:02;97058.56;;;22.26;74.77
6514;BME280;3290;47.716;9.070;2023-09-19T10:30:33;97057.16;;;22.06;76.01
6514;BME280;3290;47.716;9.070;2023-09-19T10:33:03;97054.59;;;22.47;75.88
6514;BME280;3290;47.716;9.070;2023-09-19T10:35:29;97061.22;;;22.26;75.08
6514;BME280;3290;47.716;9.070;2023-09-19T10:37:59;97055.97;;;22.16;73.77
6514;BME280;3290;47.716;9.070;2023-09-19T10:40:27;97052.25;;;22.12;74.83
6514;BME280;3290;47.716;9.070;2023-09-19T10:43:05;97047.53;;;22.74;72.52
6514;BME280;3290;47.716;9.070;2023-09-19T10:45:33;97048.22;;;23.39;70.42
6514;BME280;3290;47.716;9.070;2023-09-19T10:47:59;97052.63;;;24.65;66.55
6514;BME280;3290;47.716;9.070;2023-09-19T10:50:29;97056.44;;;24.64;64.97
6514;BME280;3290;47.716;9.070;2023-09-19T10:53:00;97051.03;;;24.24;63.56
6514;BME280;3290;47.716;9.070;2023-09-19T10:55:31;97039.38;;;25.09;62.08
6514;BME280;3290;47.716;9.070;2023-09-19T10:57:58;97045.81;;;25.21;61.41
6514;BME280;3290;47.716;9.070;2023-09-19T11:00:29;97055.63;;;24.37;63.45
6514;BME280;3290;47.716;9.070;2023-09-19T11:05:42;97038.13;;;24.26;64.45
6514;BME280;3290;47.716;9.070;2023-09-19T11:08:09;97035.59;;;23.58;66.56
6514;BME280;3290;47.716;9.070;2023-09-19T11:10:50;97026.69;;;23.31;69.00
6514;BME280;3290;47.716;9.070;2023-09-19T11:26:45;97030.53;;;22.47;73.15
6514;BME280;3290;47.716;9.070;2023-09-19T11:29:29;97040.06;;;22.53;72.39
6514;BME280;3290;47.716;9.070;2023-09-19T11:31:56;97030.84;;;22.64;73.50
6514;BME280;3290;47.716;9.070;2023-09-19T11:34:44;97023.00;;;23.27;70.06
6514;BME280;3290;47.716;9.070;2023-09-19T11:42:43;97005.56;;;26.17;60.46
6514;BME280;3290;47.716;9.070;2023-09-19T11:48:15;97013.81;;;26.67;56.32
6514;BME280;3290;47.716;9.070;2023-09-19T11:50:46;97008.91;;;25.92;56.55
6514;BME280;3290;47.716;9.070;2023-09-19T11:53:13;97006.88;;;25.67;58.40
6514;BME280;3290;47.716;9.070;2023-09-19T11:55:42;97006.38;;;25.43;60.11
6514;BME280;3290;47.716;9.070;2023-09-19T11:58:08;96999.31;;;25.99;58.03
6514;BME280;3290;47.716;9.070;2023-09-19T12:00:35;97002.34;;;25.33;57.86
6514;BME280;3290;47.716;9.070;2023-09-19T12:03:12;96996.13;;;26.27;55.92
6514;BME280;3290;47.716;9.070;2023-09-19T12:05:39;96988.78;;;26.66;53.11
6514;BME280;3290;47.716;9.070;2023-09-19T12:08:05;96978.75;;;27.31;53.60
6514;BME280;3290;47.716;9.070;2023-09-19T12:10:48;96983.97;;;26.94;53.77
6514;BME280;3290;47.716;9.070;2023-09-19T12:13:17;96980.34;;;25.96;55.82
6514;BME280;3290;47.716;9.070;2023-09-19T12:15:46;96976.09;;;26.42;56.02
6514;BME280;3290;47.716;9.070;2023-09-19T12:18:31;96972.22;;;26.73;55.06
6514;BME280;3290;47.716;9.070;2023-09-19T12:20:57;96983.88;;;26.52;54.98
6514;BME280;3290;47.716;9.070;2023-09-19T12:23:23;96973.56;;;25.68;55.04
6514;BME280;3290;47.716;9.070;2023-09-19T12:25:51;96967.78;;;26.77;52.73
6514;BME280;3290;47.716;9.070;2023-09-19T12:28:19;96973.56;;;26.07;54.36
6514;BME280;3290;47.716;9.070;2023-09-19T12:30:47;96984.94;;;25.08;58.06
6514;BME280;3290;47.716;9.070;2023-09-19T12:33:19;96971.06;;;25.28;55.62
6514;BME280;3290;47.716;9.070;2023-09-19T12:35:51;96968.81;;;26.04;53.75
6514;BME280;3290;47.716;9.070;2023-09-19T12:38:30;96979.72;;;25.69;55.30
6514;BME280;3290;47.716;9.070;2023-09-19T12:41:01;96957.19;;;25.56;56.42
6514;BME280;3290;47.716;9.070;2023-09-19T12:43:29;96962.28;;;25.88;55.44
6514;BME280;3290;47.716;9.070;2023-09-19T12:45:58;96952.59;;;26.64;53.05
6514;BME280;3290;47.716;9.070;2023-09-19T12:48:25;96960.19;;;26.62;52.55
6514;BME280;3290;47.716;9.070;2023-09-19T12:53:31;96958.41;;;26.11;54.58
6514;BME280;3290;47.716;9.070;2023-09-19T12:55:59;96947.94;;;25.62;56.76
6514;BME280;3290;47.716;9.070;2023-09-19T12:58:24;96950.78;;;25.96;54.61
6514;BME280;3290;47.716;9.070;2023-09-19T13:00:50;96956.53;;;25.07;56.35
6514;BME280;3290;47.716;9.070;2023-09-19T13:03:27;96946.75;;;25.77;53.98
6514;BME280;3290;47.716;9.070;2023-09-19T13:06:03;96934.31;;;25.89;53.77
6514;BME280;3290;47.716;9.070;2023-09-19T13:08:39;96934.06;;;26.54;52.55
6514;BME280;3290;47.716;9.070;2023-09-19T13:11:11;96933.03;;;25.56;53.26
6514;BME280;3290;47.716;9.070;2023-09-19T13:13:46;96933.41;;;26.02;55.24
6514;BME280;3290;47.716;9.070;2023-09-19T13:16:18;96933.06;;;25.95;54.30
6514;BME280;3290;47.716;9.070;2023-09-19T13:18:54;96924.31;;;25.73;53.78
6514;BME280;3290;47.716;9.070;2023-09-19T13:21:32;96930.69;;;25.93;52.69
6514;BME280;3290;47.716;9.070;2023-09-19T13:24:22;96927.16;;;26.15;52.48
6514;BME280;3290;47.716;9.070;2023-09-19T13:26:51;96919.38;;;26.77;51.62
6514;BME280;3290;47.716;9.070;2023-09-19T13:29:16;96923.66;;;26.78;51.57
6514;BME280;3290;47.716;9.070;2023-09-19T13:31:50;96926.50;;;26.81;52.36
6514;BME280;3290;47.716;9.070;2023-09-19T13:34:16;96923.47;;;26.41;52.90
6514;BME280;3290;47.716;9.070;2023-09-19T13:36:46;96909.44;;;26.94;51.70
6514;BME280;3290;47.716;9.070;2023-09-19T13:39:20;96910.22;;;26.95;51.32
6514;BME280;3290;47.716;9.070;2023-09-19T13:41:47;96905.66;;;26.87;52.24
6514;BME280;3290;47.716;9.070;2023-09-19T13:44:13;96907.84;;;27.10;51.77
6514;BME280;3290;47.716;9.070;2023-09-19T13:46:39;96898.66;;;27.11;52.76
6514;BME280;3290;47.716;9.070;2023-09-19T13:49:05;96891.97;;;27.34;51.32
6514;BME280;3290;47.716;9.070;2023-09-19T13:51:31;96896.75;;;27.28;51.28
6514;BME280;3290;47.716;9.070;2023-09-19T13:53:57;96898.19;;;26.84;52.20
6514;BME280;3290;47.716;9.070;2023-09-19T13:56:22;96901.72;;;26.20;53.20
6514;BME280;3290;47.716;9.070;2023-09-19T13:58:48;96903.66;;;26.37;51.21
6514;BME280;3290;47.716;9.070;2023-09-19T14:01:13;96891.69;;;25.96;53.11
6514;BME280;3290;47.716;9.070;2023-09-19T14:03:39;96891.69;;;25.96;53.95
6514;BME280;3290;47.716;9.070;2023-09-19T14:06:05;96880.84;;;26.09;53.67
6514;BME280;3290;47.716;9.070;2023-09-19T14:08:30;96884.41;;;26.68;51.72
6514;BME280;3290;47.716;9.070;2023-09-19T14:10:56;96879.00;;;25.88;52.91
6514;BME280;3290;47.716;9.070;2023-09-19T14:13:21;96874.50;;;26.05;53.46
6514;BME280;3290;47.716;9.070;2023-09-19T14:15:47;96876.66;;;25.86;53.44
6514;BME280;3290;47.716;9.070;2023-09-19T14:18:12;96867.75;;;26.24;54.50
6514;BME280;3290;47.716;9.070;2023-09-19T14:20:41;96870.69;;;25.98;53.43